Terminal Aerodrome Forecast
Issued by NWS

Home | Current Version | Previous Version | Text Only | Print | Product List | Glossary On
Versions: 1 2 3 4 5 6 7 8 9 10 11 12 13 14 15 16 17 18 19 20 21
000
FTUS46 KSGX 312328
TAFCRQ
TAF
KCRQ 312328Z 0100/0124 25008KT P6SM SCT200
     FM010200 VRB05KT P6SM OVC012
     FM011800 28010KT P6SM SCT015=

USA.gov is the U.S. government's official web portal to all federal, state and local government web resources and services.